createdAt,value
2016-05-03T00:00:21.458Z,19.89
2016-05-03T00:01:21.211Z,19.8
2016-05-03T00:02:21.183Z,19.78
2016-05-03T00:03:21.170Z,19.78
2016-05-03T00:04:21.157Z,19.85
2016-05-03T00:05:21.144Z,19.82
2016-05-03T00:06:21.116Z,19.82
2016-05-03T00:07:21.259Z,19.8
2016-05-03T00:08:21.074Z,19.82
2016-05-03T00:09:21.061Z,19.8
2016-05-03T00:10:21.049Z,19.83
2016-05-03T00:11:20.863Z,19.78
2016-05-03T00:12:21.007Z,19.78
2016-05-03T00:13:21.010Z,19.83
2016-05-03T00:14:20.809Z,19.68
2016-05-03T00:15:20.953Z,19.79
2016-05-03T00:16:20.940Z,19.8
2016-05-03T00:17:20.911Z,19.79
2016-05-03T00:18:20.898Z,19.83
2016-05-03T00:19:20.729Z,19.79
2016-05-03T00:20:20.873Z,19.82
2016-05-03T00:21:20.844Z,19.78
2016-05-03T00:22:20.862Z,19.78
2016-05-03T00:23:20.818Z,19.72
2016-05-03T00:24:20.836Z,19.78
2016-05-03T00:25:20.777Z,19.75
2016-05-03T00:26:20.765Z,19.75
2016-05-03T00:27:20.768Z,19.79
2016-05-03T00:28:20.800Z,19.8
2016-05-03T00:29:20.584Z,19.71
2016-05-03T00:30:20.685Z,19.79
2016-05-03T00:31:20.531Z,19.67
2016-05-03T00:32:20.863Z,19.78
2016-05-03T00:33:20.632Z,19.72
2016-05-03T00:34:20.618Z,19.76
2016-05-03T00:35:20.604Z,19.75
2016-05-03T00:36:20.577Z,19.8
2016-05-03T00:37:20.579Z,19.71
2016-05-03T00:38:20.554Z,19.72
2016-05-03T00:39:20.525Z,19.76
2016-05-03T00:40:20.871Z,19.78
2016-05-03T00:41:20.484Z,19.8
2016-05-03T00:42:20.470Z,19.79
2016-05-03T00:43:20.458Z,19.72
2016-05-03T00:44:20.445Z,19.8
2016-05-03T00:45:20.432Z,19.76
2016-05-03T00:46:20.403Z,19.82
2016-05-03T00:47:20.234Z,19.83
2016-05-03T00:48:20.862Z,19.72
2016-05-03T00:49:20.334Z,19.75
2016-05-03T00:50:20.336Z,19.83
2016-05-03T00:51:20.151Z,19.83
2016-05-03T00:52:20.170Z,19.76
2016-05-03T00:53:20.266Z,19.75
2016-05-03T00:54:20.269Z,19.72
2016-05-03T00:55:20.084Z,19.78
2016-05-03T00:56:20.867Z,19.83
2016-05-03T00:57:20.198Z,19.79
2016-05-03T00:58:20.186Z,19.83
2016-05-03T00:59:20.172Z,19.82
2016-05-03T01:00:20.003Z,19.76
2016-05-03T01:01:20.147Z,19.71
2016-05-03T01:02:19.946Z,19.75
2016-05-03T01:03:20.106Z,19.76
2016-05-03T01:04:20.124Z,19.78
2016-05-03T01:05:20.063Z,19.78
2016-05-03T01:06:20.052Z,19.76
2016-05-03T01:07:20.913Z,19.76
2016-05-03T01:08:19.869Z,19.76
2016-05-03T01:09:19.996Z,19.79
2016-05-03T01:10:19.969Z,19.76
2016-05-03T01:11:19.798Z,19.71
2016-05-03T01:12:20.177Z,19.8
2016-05-03T01:13:19.929Z,19.82
2016-05-03T01:14:19.900Z,19.82
2016-05-03T01:15:19.732Z,19.8
2016-05-03T01:16:19.859Z,19.75
2016-05-03T01:17:19.706Z,19.75
2016-05-03T01:18:19.848Z,19.76
2016-05-03T01:19:19.805Z,19.78
2016-05-03T01:20:20.151Z,19.76
2016-05-03T01:21:19.779Z,19.75
2016-05-03T01:22:20.187Z,19.76
2016-05-03T01:23:19.737Z,19.79
2016-05-03T01:24:19.725Z,19.76
2016-05-03T01:25:19.712Z,19.72
2016-05-03T01:26:19.683Z,19.72
2016-05-03T01:27:19.779Z,19.8
2016-05-03T01:28:19.657Z,19.82
2016-05-03T01:29:19.628Z,19.72
2016-05-03T01:30:19.600Z,19.71
2016-05-03T01:31:19.602Z,19.71
2016-05-03T01:32:19.278Z,19.8
2016-05-03T01:33:19.561Z,19.67
2016-05-03T01:34:19.533Z,19.71
2016-05-03T01:35:19.770Z,19.72
2016-05-03T01:36:19.507Z,19.75
2016-05-03T01:37:19.510Z,19.79
2016-05-03T01:38:19.481Z,19.79
2016-05-03T01:39:19.468Z,19.8
2016-05-03T01:40:19.283Z,19.79
2016-05-03T01:41:19.411Z,19.79
2016-05-03T01:42:19.414Z,19.79
2016-05-03T01:43:19.776Z,19.72
2016-05-03T01:44:19.372Z,19.75
2016-05-03T01:45:19.187Z,19.86
2016-05-03T01:46:19.330Z,19.8
2016-05-03T01:47:19.318Z,19.8
2016-05-03T01:48:19.321Z,19.75
2016-05-03T01:49:19.276Z,19.76
2016-05-03T01:50:19.279Z,19.8
2016-05-03T01:51:19.844Z,19.83
2016-05-03T01:52:19.659Z,19.87
2016-05-03T01:53:19.210Z,19.8
2016-05-03T01:54:19.196Z,19.89
2016-05-03T01:55:19.026Z,19.83
2016-05-03T01:56:18.999Z,19.83
2016-05-03T01:57:19.126Z,19.79
2016-05-03T01:58:19.112Z,19.86
2016-05-03T01:59:19.100Z,19.82
2016-05-03T02:00:18.931Z,19.8
2016-05-03T02:01:18.918Z,19.79
2016-05-03T02:02:19.045Z,19.76
2016-05-03T02:03:19.033Z,19.8
2016-05-03T02:04:19.004Z,19.86
2016-05-03T02:05:18.992Z,19.8
2016-05-03T02:06:18.823Z,19.87
2016-05-03T02:07:18.918Z,19.78
2016-05-03T02:08:18.937Z,19.79
2016-05-03T02:09:18.924Z,19.79
2016-05-03T02:10:18.895Z,19.8
2016-05-03T02:11:18.883Z,19.86
2016-05-03T02:12:18.869Z,19.79
2016-05-03T02:13:18.841Z,19.82
2016-05-03T02:14:18.828Z,19.82
2016-05-03T02:15:19.112Z,19.8
2016-05-03T02:16:18.646Z,19.82
2016-05-03T02:17:18.774Z,19.79
2016-05-03T02:18:18.760Z,19.83
2016-05-03T02:19:18.748Z,19.78
2016-05-03T02:20:18.735Z,19.79
2016-05-03T02:21:18.707Z,19.79
2016-05-03T02:22:18.584Z,19.82
2016-05-03T02:23:19.118Z,19.89
2016-05-03T02:24:18.651Z,19.79
2016-05-03T02:25:18.639Z,19.82
2016-05-03T02:26:18.626Z,19.8
2016-05-03T02:27:18.598Z,19.83
2016-05-03T02:28:18.584Z,19.76
2016-05-03T02:29:18.571Z,19.78
2016-05-03T02:30:18.809Z,19.85
2016-05-03T02:31:18.531Z,19.8
2016-05-03T02:32:18.517Z,19.76
2016-05-03T02:33:18.488Z,19.79
2016-05-03T02:34:18.476Z,19.78
2016-05-03T02:35:18.462Z,19.76
2016-05-03T02:36:18.450Z,19.82
2016-05-03T02:37:19.608Z,19.86
2016-05-03T02:38:18.753Z,19.82
2016-05-03T02:39:18.395Z,19.8
2016-05-03T02:40:18.366Z,19.8
2016-05-03T02:41:18.353Z,19.83
2016-05-03T02:42:18.325Z,19.79
2016-05-03T02:43:18.313Z,19.79
2016-05-03T02:44:18.300Z,19.75
2016-05-03T02:45:18.286Z,19.82
2016-05-03T02:46:18.711Z,19.78
2016-05-03T02:47:18.089Z,19.78
2016-05-03T02:48:18.232Z,19.8
2016-05-03T02:49:18.204Z,19.79
2016-05-03T02:50:18.190Z,19.79
2016-05-03T02:51:18.178Z,19.78
2016-05-03T02:52:18.165Z,19.8
2016-05-03T02:53:18.136Z,19.83
2016-05-03T02:54:18.764Z,19.79
2016-05-03T02:55:18.096Z,19.8
2016-05-03T02:56:18.098Z,19.82
2016-05-03T02:57:18.069Z,19.76
2016-05-03T02:58:18.041Z,19.8
2016-05-03T02:59:18.027Z,19.76
2016-05-03T03:00:17.859Z,19.82
2016-05-03T03:01:18.017Z,19.82
2016-05-03T03:02:17.707Z,19.82
2016-05-03T03:03:17.960Z,19.8
2016-05-03T03:04:17.791Z,19.83
2016-05-03T03:05:17.918Z,19.82
2016-05-03T03:06:17.890Z,19.71
2016-05-03T03:07:18.518Z,19.8
2016-05-03T03:08:17.739Z,19.78
2016-05-03T03:09:17.850Z,19.83
2016-05-03T03:10:18.026Z,19.79
2016-05-03T03:11:17.825Z,19.83
2016-05-03T03:12:17.812Z,19.85
2016-05-03T03:13:17.783Z,19.75
2016-05-03T03:14:17.615Z,19.82
2016-05-03T03:15:17.742Z,19.9
2016-05-03T03:16:17.730Z,19.83
2016-05-03T03:17:17.717Z,19.8
2016-05-03T03:18:18.047Z,19.85
2016-05-03T03:19:17.691Z,19.82
2016-05-03T03:20:17.662Z,19.83
2016-05-03T03:21:17.649Z,19.83
2016-05-03T03:22:17.652Z,19.86
2016-05-03T03:23:17.624Z,19.8
2016-05-03T03:24:17.594Z,19.83
2016-05-03T03:25:17.566Z,19.8
2016-05-03T03:26:17.553Z,19.79
2016-05-03T03:27:17.540Z,19.79
2016-05-03T03:28:17.512Z,19.79
2016-05-03T03:29:17.530Z,19.76
2016-05-03T03:30:17.486Z,19.76
2016-05-03T03:31:17.333Z,19.79
2016-05-03T03:32:17.445Z,19.8
2016-05-03T03:33:17.432Z,19.76
2016-05-03T03:34:17.403Z,19.76
2016-05-03T03:35:17.390Z,19.78
2016-05-03T03:36:17.377Z,19.78
2016-05-03T03:37:17.051Z,19.83
2016-05-03T03:38:17.336Z,19.8
2016-05-03T03:39:17.323Z,19.71
2016-05-03T03:40:17.153Z,19.75
2016-05-03T03:41:17.140Z,19.79
2016-05-03T03:42:17.128Z,19.72
2016-05-03T03:43:17.256Z,19.76
2016-05-03T03:44:17.087Z,19.72
2016-05-03T03:45:17.229Z,19.67
2016-05-03T03:46:17.200Z,19.72
2016-05-03T03:47:17.172Z,19.79
2016-05-03T03:48:17.175Z,19.8
2016-05-03T03:49:17.146Z,19.85
2016-05-03T03:50:17.119Z,19.85
2016-05-03T03:51:17.105Z,19.79
2016-05-03T03:52:17.295Z,19.78
2016-05-03T03:53:17.079Z,19.76
2016-05-03T03:54:16.910Z,19.82
2016-05-03T03:55:16.881Z,19.82
2016-05-03T03:56:17.025Z,19.82
2016-05-03T03:57:16.996Z,19.76
2016-05-03T03:58:16.826Z,19.75
2016-05-03T03:59:17.017Z,19.79
2016-05-03T04:00:16.957Z,19.79
2016-05-03T04:01:16.929Z,19.71
2016-05-03T04:02:16.916Z,19.72
2016-05-03T04:03:16.887Z,19.71
2016-05-03T04:04:16.718Z,19.75
2016-05-03T04:05:16.862Z,19.72
2016-05-03T04:06:16.693Z,19.8
2016-05-03T04:07:17.070Z,19.76
2016-05-03T04:08:16.822Z,19.75
2016-05-03T04:09:16.794Z,19.78
2016-05-03T04:10:16.609Z,19.8
2016-05-03T04:11:16.768Z,19.76
2016-05-03T04:12:16.740Z,19.76
2016-05-03T04:13:16.571Z,19.75
2016-05-03T04:14:16.697Z,19.83
2016-05-03T04:15:17.091Z,19.75
2016-05-03T04:16:16.672Z,19.71
2016-05-03T04:17:16.644Z,19.79
2016-05-03T04:18:16.631Z,19.71
2016-05-03T04:19:16.617Z,19.78
2016-05-03T04:20:16.589Z,19.72
2016-05-03T04:21:16.596Z,19.67
2016-05-03T04:22:16.864Z,19.8
2016-05-03T04:23:17.195Z,19.78
2016-05-03T04:24:16.682Z,19.78
2016-05-03T04:25:16.700Z,19.71
2016-05-03T04:26:16.714Z,19.72
2016-05-03T04:27:16.719Z,19.71
2016-05-03T04:28:16.721Z,19.71
2016-05-03T04:29:16.569Z,19.75
2016-05-03T04:30:16.729Z,19.71
2016-05-03T04:31:17.419Z,19.67
2016-05-03T04:32:16.708Z,19.7
2016-05-03T04:33:16.718Z,19.7
2016-05-03T04:34:16.680Z,19.65
2016-05-03T04:35:16.673Z,19.65
2016-05-03T04:36:16.665Z,19.72
2016-05-03T04:37:16.530Z,19.7
2016-05-03T04:38:16.613Z,19.76
2016-05-03T04:39:16.695Z,19.71
2016-05-03T04:40:16.592Z,19.72
2016-05-03T04:41:16.581Z,19.78
2016-05-03T04:42:16.553Z,19.71
2016-05-03T04:43:16.401Z,19.68
2016-05-03T04:44:16.529Z,19.72
2016-05-03T04:45:16.517Z,19.67
2016-05-03T04:46:16.505Z,19.78
2016-05-03T04:47:16.742Z,19.65
2016-05-03T04:48:16.464Z,19.83
2016-05-03T04:49:16.451Z,19.68
2016-05-03T04:50:16.267Z,19.71
2016-05-03T04:51:16.426Z,19.68
2016-05-03T04:52:16.491Z,19.65
2016-05-03T04:53:16.368Z,19.72
2016-05-03T04:54:16.418Z,19.65
2016-05-03T04:55:16.749Z,19.7
2016-05-03T04:56:16.346Z,19.62
2016-05-03T04:57:16.301Z,19.68
2016-05-03T04:58:16.289Z,19.62
2016-05-03T04:59:16.260Z,19.71
2016-05-03T05:00:16.262Z,19.65
2016-05-03T05:01:16.234Z,19.68
2016-05-03T05:02:16.362Z,19.7
2016-05-03T05:03:16.193Z,19.75
2016-05-03T05:04:16.180Z,19.72
2016-05-03T05:05:16.167Z,19.72
2016-05-03T05:06:15.997Z,19.71
2016-05-03T05:07:17.938Z,19.72
2016-05-03T05:08:16.112Z,19.7
2016-05-03T05:09:16.084Z,19.78
2016-05-03T05:10:16.227Z,19.71
2016-05-03T05:11:15.902Z,19.71
2016-05-03T05:12:15.889Z,19.83
2016-05-03T05:13:16.016Z,19.71
2016-05-03T05:14:16.003Z,19.8
2016-05-03T05:15:15.991Z,19.71
2016-05-03T05:16:15.821Z,19.75
2016-05-03T05:17:15.933Z,19.72
2016-05-03T05:18:16.374Z,19.76
2016-05-03T05:19:15.907Z,19.82
2016-05-03T05:20:15.910Z,19.64
2016-05-03T05:21:15.726Z,19.68
2016-05-03T05:22:15.713Z,19.68
2016-05-03T05:23:15.871Z,19.8
2016-05-03T05:24:15.827Z,19.67
2016-05-03T05:25:15.815Z,19.68
2016-05-03T05:26:16.395Z,19.75
2016-05-03T05:27:15.773Z,19.65
2016-05-03T05:28:15.603Z,19.64
2016-05-03T05:29:15.731Z,19.65
2016-05-03T05:30:15.718Z,19.6
2016-05-03T05:31:15.549Z,19.64
2016-05-03T05:32:15.676Z,19.65
2016-05-03T05:33:15.664Z,19.61
2016-05-03T05:34:15.698Z,19.64
2016-05-03T05:35:15.622Z,19.67
2016-05-03T05:36:15.625Z,19.65
2016-05-03T05:37:15.612Z,19.67
2016-05-03T05:38:15.583Z,19.57
2016-05-03T05:39:15.571Z,19.6
2016-05-03T05:40:15.542Z,19.62
2016-05-03T05:41:15.529Z,19.62
2016-05-03T05:42:15.672Z,19.58
2016-05-03T05:43:15.488Z,19.64
2016-05-03T05:44:15.474Z,19.61
2016-05-03T05:45:15.461Z,19.67
2016-05-03T05:46:15.277Z,19.65
2016-05-03T05:47:15.436Z,19.65
2016-05-03T05:48:15.407Z,19.62
2016-05-03T05:49:15.222Z,19.6
2016-05-03T05:50:15.663Z,19.61
2016-05-03T05:51:15.400Z,19.67
2016-05-03T05:52:15.340Z,19.62
2016-05-03T05:53:15.312Z,19.64
2016-05-03T05:54:15.299Z,19.62
2016-05-03T05:55:15.129Z,19.6
2016-05-03T05:56:15.257Z,19.61
2016-05-03T05:57:15.151Z,19.67
2016-05-03T05:58:15.684Z,19.64
2016-05-03T05:59:15.203Z,19.6
2016-05-03T06:00:15.206Z,19.62
2016-05-03T06:01:15.176Z,19.6
2016-05-03T06:02:15.007Z,19.57
2016-05-03T06:03:15.134Z,19.67
2016-05-03T06:04:15.123Z,19.71
2016-05-03T06:05:15.313Z,19.64
2016-05-03T06:06:15.097Z,19.75
2016-05-03T06:07:15.083Z,19.58
2016-05-03T06:08:15.055Z,19.6
2016-05-03T06:09:15.042Z,19.62
2016-05-03T06:10:15.029Z,19.71
2016-05-03T06:11:15.001Z,19.61
2016-05-03T06:12:14.988Z,19.55
2016-05-03T06:13:15.318Z,19.7
2016-05-03T06:14:14.790Z,19.7
2016-05-03T06:15:14.933Z,19.71
2016-05-03T06:16:14.920Z,19.61
2016-05-03T06:17:14.908Z,19.67
2016-05-03T06:18:14.880Z,19.62
2016-05-03T06:19:14.882Z,19.64
2016-05-03T06:20:14.853Z,19.72
2016-05-03T06:21:15.324Z,19.71
2016-05-03T06:22:15.061Z,19.7
2016-05-03T06:23:14.783Z,19.75
2016-05-03T06:24:14.771Z,19.7
2016-05-03T06:25:14.757Z,19.7
2016-05-03T06:26:14.743Z,19.62
2016-05-03T06:27:14.732Z,19.67
2016-05-03T06:28:14.718Z,19.62
2016-05-03T06:29:15.330Z,19.62
2016-05-03T06:30:14.662Z,19.62
2016-05-03T06:31:14.664Z,19.6
2016-05-03T06:32:14.620Z,19.64
2016-05-03T06:33:14.623Z,19.57
2016-05-03T06:34:14.453Z,19.58
2016-05-03T06:35:14.581Z,19.62
2016-05-03T06:36:14.553Z,19.6
2016-05-03T06:37:15.056Z,19.62
2016-05-03T06:38:14.510Z,19.6
2016-05-03T06:39:14.357Z,19.58
2016-05-03T06:40:14.344Z,19.62
2016-05-03T06:41:14.316Z,19.61
2016-05-03T06:42:14.475Z,19.62
2016-05-03T06:43:14.447Z,19.65
2016-05-03T06:44:14.417Z,19.57
2016-05-03T06:45:14.607Z,19.61
2016-05-03T06:46:14.391Z,19.67
2016-05-03T06:47:14.378Z,19.64
2016-05-03T06:48:14.350Z,19.62
2016-05-03T06:49:14.181Z,19.61
2016-05-03T06:50:14.324Z,19.57
2016-05-03T06:51:14.296Z,19.6
2016-05-03T06:52:14.455Z,19.62
2016-05-03T06:53:14.613Z,19.58
2016-05-03T06:54:14.241Z,19.6
2016-05-03T06:55:14.228Z,19.62
2016-05-03T06:56:14.216Z,19.65
2016-05-03T06:57:14.202Z,19.64
2016-05-03T06:58:14.174Z,19.62
2016-05-03T06:59:14.146Z,19.61
2016-05-03T07:00:14.148Z,19.65
2016-05-03T07:01:14.120Z,19.6
2016-05-03T07:02:14.091Z,19.58
2016-05-03T07:03:14.093Z,19.64
2016-05-03T07:04:14.081Z,19.64
2016-05-03T07:05:14.052Z,19.61
2016-05-03T07:06:14.040Z,19.62
2016-05-03T07:07:14.245Z,19.67
2016-05-03T07:08:13.998Z,19.57
2016-05-03T07:09:13.984Z,19.62
2016-05-03T07:10:13.956Z,19.62
2016-05-03T07:11:13.943Z,19.57
2016-05-03T07:12:13.931Z,19.6
2016-05-03T07:13:13.903Z,19.62
2016-05-03T07:14:13.889Z,19.61
2016-05-03T07:15:13.876Z,19.62
2016-05-03T07:16:13.691Z,19.61
2016-05-03T07:17:13.850Z,19.65
2016-05-03T07:18:13.822Z,19.58
2016-05-03T07:19:13.793Z,19.6
2016-05-03T07:20:13.780Z,19.61
2016-05-03T07:21:13.783Z,19.67
2016-05-03T07:22:14.020Z,19.62
2016-05-03T07:23:13.585Z,19.57
2016-05-03T07:24:13.713Z,19.58
2016-05-03T07:25:13.700Z,19.58
2016-05-03T07:26:13.671Z,19.6
2016-05-03T07:27:13.658Z,19.58
2016-05-03T07:28:13.629Z,19.65
2016-05-03T07:29:13.461Z,19.62
2016-05-03T07:30:13.604Z,19.6
2016-05-03T07:31:13.576Z,19.62
2016-05-03T07:32:13.407Z,19.58
2016-05-03T07:33:13.549Z,19.67
2016-05-03T07:34:13.630Z,19.6
2016-05-03T07:35:13.523Z,19.58
2016-05-03T07:36:13.495Z,19.61
2016-05-03T07:37:13.342Z,19.61
2016-05-03T07:38:13.453Z,19.65
2016-05-03T07:39:13.457Z,19.58
2016-05-03T07:40:13.271Z,19.58
2016-05-03T07:41:13.399Z,19.62
2016-05-03T07:42:13.684Z,19.58
2016-05-03T07:43:13.358Z,19.62
2016-05-03T07:44:13.189Z,19.67
2016-05-03T07:45:13.331Z,19.65
2016-05-03T07:46:13.319Z,19.55
2016-05-03T07:47:13.306Z,19.2
2016-05-03T07:48:13.278Z,19.06
2016-05-03T07:49:13.264Z,18.78
2016-05-03T07:50:13.689Z,18.75
2016-05-03T07:51:13.255Z,18.65
2016-05-03T07:52:13.210Z,18.5
2016-05-03T07:53:13.197Z,18.56
2016-05-03T07:54:13.169Z,18.41
2016-05-03T07:55:13.156Z,18.49
2016-05-03T07:56:13.127Z,18.32
2016-05-03T07:57:12.955Z,18.38
2016-05-03T07:58:13.694Z,18.47
2016-05-03T07:59:13.069Z,18.46
2016-05-03T08:00:12.901Z,18.31
2016-05-03T08:01:12.888Z,18.28
2016-05-03T08:02:12.875Z,18.13
2016-05-03T08:03:12.988Z,18.26
2016-05-03T08:04:12.974Z,18.31
2016-05-03T08:05:12.805Z,18.34
2016-05-03T08:06:12.949Z,18.26
2016-05-03T08:07:12.779Z,18.17
2016-05-03T08:08:12.907Z,18.26
2016-05-03T08:09:12.738Z,18.23
2016-05-03T08:10:12.881Z,18.31
2016-05-03T08:11:12.851Z,18.23
2016-05-03T08:12:12.840Z,18.23
2016-05-03T08:13:12.811Z,18.14
2016-05-03T08:14:12.953Z,18.26
2016-05-03T08:15:12.613Z,18.17
2016-05-03T08:16:12.756Z,18.26
2016-05-03T08:17:12.743Z,18.16
2016-05-03T08:18:12.715Z,18.2
2016-05-03T08:19:12.702Z,18.19
2016-05-03T08:20:12.517Z,18.34
2016-05-03T08:21:12.660Z,18.38
2016-05-03T08:22:12.944Z,18.6
2016-05-03T08:23:12.525Z,18.75
2016-05-03T08:24:12.606Z,18.91
2016-05-03T08:25:12.593Z,19.06
2016-05-03T08:26:12.580Z,19.16
2016-05-03T08:27:12.552Z,19.27
2016-05-03T08:28:12.397Z,19.32
2016-05-03T08:29:12.572Z,19.5
2016-05-03T08:30:12.341Z,19.65
2016-05-03T08:31:12.485Z,19.64
2016-05-03T08:32:12.471Z,19.76
2016-05-03T08:33:12.443Z,19.64
2016-05-03T08:34:12.445Z,19.78
2016-05-03T08:35:12.401Z,19.83
2016-05-03T08:36:12.232Z,19.82
2016-05-03T08:37:12.437Z,19.83
2016-05-03T08:38:12.581Z,19.87
2016-05-03T08:39:12.334Z,19.89
2016-05-03T08:40:12.320Z,20.01
2016-05-03T08:41:12.136Z,19.95
2016-05-03T08:42:12.279Z,19.97
2016-05-03T08:43:12.281Z,19.9
2016-05-03T08:44:12.253Z,20
2016-05-03T08:45:12.585Z,20.07
2016-05-03T08:46:12.212Z,20.1
2016-05-03T08:47:12.183Z,20.19
2016-05-03T08:48:12.187Z,20.05
2016-05-03T08:49:12.158Z,20.15
2016-05-03T08:50:12.144Z,20.19
2016-05-03T08:51:12.116Z,20.07
2016-05-03T08:52:12.103Z,20.07
2016-05-03T08:53:12.652Z,20.12
2016-05-03T08:54:11.921Z,20.08
2016-05-03T08:55:12.064Z,20.15
2016-05-03T08:56:12.036Z,20.13
2016-05-03T08:57:11.867Z,20.2
2016-05-03T08:58:12.010Z,20.2
2016-05-03T08:59:11.981Z,20.17
2016-05-03T09:00:11.969Z,20.17
2016-05-03T09:01:12.643Z,20.19
2016-05-03T09:02:11.786Z,20.27
2016-05-03T09:03:11.929Z,20.2
2016-05-03T09:04:11.901Z,20.19
2016-05-03T09:05:11.888Z,20.19
2016-05-03T09:06:11.860Z,20.19
2016-05-03T09:07:11.862Z,20.23
2016-05-03T09:08:11.865Z,20.2
2016-05-03T09:09:11.852Z,20.2
2016-05-03T09:10:11.651Z,20.26
2016-05-03T09:11:11.763Z,20.16
2016-05-03T09:12:11.751Z,20.2
2016-05-03T09:13:11.738Z,20.19
2016-05-03T09:14:11.725Z,20.2
2016-05-03T09:15:11.712Z,20.17
2016-05-03T09:16:11.698Z,20.22
2016-05-03T09:17:11.920Z,20.2
2016-05-03T09:18:11.657Z,20.16
2016-05-03T09:19:11.644Z,20.17
2016-05-03T09:20:11.616Z,20.23
2016-05-03T09:21:11.603Z,20.27
2016-05-03T09:22:11.574Z,20.17
2016-05-03T09:23:11.764Z,20.15
2016-05-03T09:24:11.548Z,20.17
2016-05-03T09:25:11.911Z,20.19
2016-05-03T09:26:11.538Z,20.2
2016-05-03T09:27:11.494Z,20.16
2016-05-03T09:28:11.466Z,20.2
2016-05-03T09:29:11.453Z,20.17
2016-05-03T09:30:11.439Z,20.17
2016-05-03T09:31:11.427Z,20.19
2016-05-03T09:32:11.569Z,20.23
2016-05-03T09:33:11.244Z,20.23
2016-05-03T09:34:11.387Z,20.22
2016-05-03T09:35:11.360Z,20.17
2016-05-03T09:36:11.330Z,20.22
2016-05-03T09:37:11.333Z,20.19
2016-05-03T09:38:12.508Z,20.19
2016-05-03T09:39:11.276Z,20.22
2016-05-03T09:40:11.529Z,20.22
2016-05-03T09:41:11.251Z,20.2
2016-05-03T09:42:11.237Z,20.19
2016-05-03T09:43:11.224Z,20.2
2016-05-03T09:44:11.040Z,20.23
2016-05-03T09:45:11.027Z,20.2
2016-05-03T09:46:11.170Z,20.17
2016-05-03T09:47:11.142Z,20.2
2016-05-03T09:48:11.582Z,20.25
2016-05-03T09:49:11.115Z,20.22
2016-05-03T09:50:11.118Z,20.17
2016-05-03T09:51:11.074Z,20.23
2016-05-03T09:52:10.906Z,20.2
2016-05-03T09:53:10.908Z,20.2
2016-05-03T09:54:10.878Z,20.19
2016-05-03T09:55:11.007Z,20.2
2016-05-03T09:56:11.588Z,20.19
2016-05-03T09:57:10.981Z,20.17
2016-05-03T09:58:10.797Z,20.26
2016-05-03T09:59:10.955Z,20.22
2016-05-03T10:00:10.942Z,20.17
2016-05-03T10:01:10.897Z,20.17
2016-05-03T10:02:10.886Z,20.25
2016-05-03T10:03:10.872Z,20.22
2016-05-03T10:04:10.843Z,20.23
2016-05-03T10:05:10.658Z,20.2
2016-05-03T10:06:10.802Z,20.19
2016-05-03T10:07:10.804Z,20.19
2016-05-03T10:08:11.182Z,20.17
2016-05-03T10:09:10.607Z,20.16
2016-05-03T10:10:10.750Z,20.22
2016-05-03T10:11:10.721Z,20.16
2016-05-03T10:12:10.849Z,20.2
2016-05-03T10:13:10.696Z,20.15
2016-05-03T10:14:10.682Z,20.19
2016-05-03T10:15:10.670Z,20.23
2016-05-03T10:16:10.501Z,20.17
2016-05-03T10:17:10.629Z,20.22
2016-05-03T10:18:10.615Z,20.19
2016-05-03T10:19:10.587Z,20.08
2016-05-03T10:20:10.823Z,20.22
2016-05-03T10:21:10.546Z,20.12
2016-05-03T10:22:10.548Z,20.02
2016-05-03T10:23:10.472Z,20.1
2016-05-03T10:24:10.522Z,20.1
2016-05-03T10:25:10.494Z,20.15
2016-05-03T10:26:10.465Z,20.07
2016-05-03T10:27:10.453Z,20.05
2016-05-03T10:28:10.877Z,20.1
2016-05-03T10:29:10.427Z,20.12
2016-05-03T10:30:10.398Z,20.17
2016-05-03T10:31:10.400Z,20.17
2016-05-03T10:32:10.372Z,20.16
2016-05-03T10:33:10.359Z,20.19
2016-05-03T10:34:10.346Z,20.22
2016-05-03T10:35:10.318Z,20.16
2016-05-03T10:36:10.164Z,20.17
2016-05-03T10:37:10.292Z,20.13
2016-05-03T10:38:10.122Z,20.19
2016-05-03T10:39:10.250Z,20.13
2016-05-03T10:40:10.238Z,20.19
2016-05-03T10:41:10.224Z,20.17
2016-05-03T10:42:10.212Z,20.25
2016-05-03T10:43:10.183Z,20.17
2016-05-03T10:44:10.013Z,20.16
2016-05-03T10:45:09.985Z,20.19
2016-05-03T10:46:10.129Z,20.27
2016-05-03T10:47:09.959Z,20.3
2016-05-03T10:48:10.087Z,20.2
2016-05-03T10:49:10.073Z,20.22
2016-05-03T10:50:10.061Z,20.15
2016-05-03T10:51:10.032Z,20.2
2016-05-03T10:52:10.035Z,20.19
2016-05-03T10:53:11.538Z,20.2
2016-05-03T10:54:09.994Z,20.17
2016-05-03T10:55:09.824Z,20.22
2016-05-03T10:56:09.953Z,20.17
2016-05-03T10:57:09.939Z,20.13
2016-05-03T10:58:09.926Z,20.16
2016-05-03T10:59:09.914Z,20.17
2016-05-03T11:00:09.885Z,20.1
2016-05-03T11:01:09.872Z,20.12
2016-05-03T11:02:09.859Z,20.1
2016-05-03T11:03:09.830Z,20.08
2016-05-03T11:04:09.817Z,20.12
2016-05-03T11:05:09.805Z,20.15
2016-05-03T11:06:09.776Z,20.1
2016-05-03T11:07:09.763Z,20.08
2016-05-03T11:08:09.610Z,20.12
2016-05-03T11:09:09.846Z,20.17
2016-05-03T11:10:09.709Z,20.12
2016-05-03T11:11:09.540Z,20.13
2016-05-03T11:12:09.682Z,20.15
2016-05-03T11:13:09.671Z,20.16
2016-05-03T11:14:09.484Z,20.22
2016-05-03T11:15:09.628Z,20.16
2016-05-03T11:16:09.615Z,20.16
2016-05-03T11:17:09.899Z,20.22
2016-05-03T11:18:09.574Z,20.2
2016-05-03T11:19:09.561Z,20.19
2016-05-03T11:20:09.548Z,20.22
2016-05-03T11:21:09.534Z,20.2
2016-05-03T11:22:09.351Z,20.16
2016-05-03T11:23:09.353Z,20.19
2016-05-03T11:24:09.496Z,20.2
2016-05-03T11:25:09.906Z,20.17
2016-05-03T11:26:09.455Z,20.19
2016-05-03T11:27:09.426Z,20.19
2016-05-03T11:28:09.398Z,20.16
2016-05-03T11:29:09.384Z,20.16
2016-05-03T11:30:09.372Z,20.1
2016-05-03T11:31:09.359Z,20.2
2016-05-03T11:32:09.330Z,20.2
2016-05-03T11:33:09.927Z,20.23
2016-05-03T11:34:09.305Z,20.25
2016-05-03T11:35:09.291Z,20.35
2016-05-03T11:36:09.278Z,20.38
2016-05-03T11:37:09.250Z,20.33
2016-05-03T11:38:09.096Z,20.33
2016-05-03T11:39:09.208Z,20.34
2016-05-03T11:40:09.196Z,20.38
2016-05-03T11:41:09.166Z,20.33
2016-05-03T11:42:09.170Z,20.35
2016-05-03T11:43:09.141Z,20.38
2016-05-03T11:44:09.144Z,20.34
2016-05-03T11:45:08.960Z,20.35
2016-05-03T11:46:09.102Z,20.33
2016-05-03T11:47:08.917Z,20.3
2016-05-03T11:48:08.904Z,20.2
2016-05-03T11:49:09.204Z,20.22
2016-05-03T11:50:09.020Z,20.19
2016-05-03T11:51:09.007Z,20.17
2016-05-03T11:52:08.681Z,20.17
2016-05-03T11:53:09.528Z,20.15
2016-05-03T11:54:08.967Z,20.2
2016-05-03T11:55:08.955Z,20.16
2016-05-03T11:56:08.926Z,20.2
2016-05-03T11:57:09.210Z,20.26
2016-05-03T11:58:08.900Z,20.34
2016-05-03T11:59:08.872Z,20.31
2016-05-03T12:00:08.703Z,20.42
2016-05-03T12:01:08.830Z,20.42
2016-05-03T12:02:08.662Z,20.41
2016-05-03T12:03:09.805Z,20.46
2016-05-03T12:04:08.791Z,20.5
2016-05-03T12:05:08.778Z,20.57
2016-05-03T12:06:08.594Z,20.66
2016-05-03T12:07:08.737Z,20.63
2016-05-03T12:08:09.303Z,20.66
2016-05-03T12:09:08.711Z,20.76
2016-05-03T12:10:08.699Z,20.63
2016-05-03T12:11:09.764Z,20.57
2016-05-03T12:12:08.688Z,20.69
2016-05-03T12:13:08.628Z,20.61
2016-05-03T12:14:08.459Z,20.63
2016-05-03T12:15:08.431Z,20.46
2016-05-03T12:16:08.433Z,20.51
2016-05-03T12:17:08.560Z,20.46
2016-05-03T12:18:08.423Z,20.44
2016-05-03T12:19:18.082Z,20.53
2016-05-03T12:20:08.522Z,20.5
2016-05-03T12:21:08.510Z,20.46
2016-05-03T12:22:08.324Z,20.5
2016-05-03T12:23:08.468Z,20.48
2016-05-03T12:24:08.440Z,20.48
2016-05-03T12:25:08.271Z,20.51
2016-05-03T12:26:08.257Z,20.46
2016-05-03T12:27:08.400Z,20.46
2016-05-03T12:28:08.372Z,20.53
2016-05-03T12:29:08.218Z,20.34
2016-05-03T12:30:08.345Z,20.22
2016-05-03T12:31:08.333Z,20.12
2016-05-03T12:32:08.164Z,19.98
2016-05-03T12:33:08.151Z,19.87
2016-05-03T12:34:08.279Z,19.83
2016-05-03T12:35:08.266Z,19.8
2016-05-03T12:36:08.252Z,19.82
2016-05-03T12:37:08.052Z,19.83
2016-05-03T12:38:08.649Z,19.7
2016-05-03T12:39:08.261Z,19.65
2016-05-03T12:40:08.186Z,19.71
2016-05-03T12:41:08.000Z,19.65
2016-05-03T12:42:08.144Z,19.62
2016-05-03T12:43:08.115Z,19.68
2016-05-03T12:44:08.102Z,19.67
2016-05-03T12:45:08.088Z,19.78
2016-05-03T12:46:07.905Z,19.82
2016-05-03T12:47:08.033Z,19.94
2016-05-03T12:48:08.019Z,19.95
2016-05-03T12:49:08.022Z,20.15
2016-05-03T12:50:07.837Z,20.12
2016-05-03T12:51:07.824Z,20.07
2016-05-03T12:52:07.998Z,20.04
2016-05-03T12:53:07.798Z,20.1
2016-05-03T12:54:07.910Z,20.16
2016-05-03T12:55:07.897Z,20.15
2016-05-03T12:56:07.868Z,20.2